Time;durP1;ratioP1;P1;durP2;ratioP2;P2;SDS_P1;SDS_P2;PMS_P1;PMS_P2;Temp;Humidity;BMP_temperature;BMP_pressure;BME280_temperature;BME280_humidity;BME280_pressure;Samples;Min_cycle;Max_cycle;Signal;HPM_P1;HPM_P2
2023/10/01 00:23:46;;;;;;;13.00;9.20;;;;;;;10.71;84.71;98050.53;105407;1265;94354;-79
2023/10/01 00:26:53;;;;;;;12.60;8.90;;;;;;;10.57;84.82;98052.08;105208;1266;98386;-90
2023/10/01 00:29:59;;;;;;;16.60;10.30;;;;;;;10.46;84.95;98051.21;104469;1276;101377;-89
2023/10/01 01:58:24;;;;;;;22.30;13.20;;;;;;;10.20;87.24;98035.75;105257;1264;96888;-80
2023/10/01 02:01:35;;;;;;;19.50;12.30;;;;;;;10.21;87.40;98035.47;106756;1251;99795;-81
2023/10/01 02:04:25;;;;;;;20.20;13.30;;;;;;;10.22;87.56;98036.77;105091;1266;100455;-80
2023/10/01 02:07:33;;;;;;;22.80;14.20;;;;;;;10.21;87.57;98040.90;105263;1266;99996;-90
2023/10/01 02:10:46;;;;;;;21.20;13.60;;;;;;;10.19;87.70;98041.14;104506;1292;96096;-90
2023/10/01 02:13:34;;;;;;;;;;;;;;;10.20;87.86;98038.32;103652;1285;96401;-90
2023/10/01 02:16:42;;;;;;;21.00;13.60;;;;;;;10.21;88.11;98036.76;103405;1287;100049;-84
2023/10/01 02:44:56;;;;;;;19.40;13.00;;;;;;;10.65;87.34;98050.77;105686;1260;98665;-89
2023/10/01 02:48:13;;;;;;;19.00;11.80;;;;;;;10.63;87.34;98042.91;105924;1258;95891;-79
2023/10/01 02:51:32;;;;;;;17.70;12.20;;;;;;;10.60;87.07;98039.74;106311;1265;97095;-79
2023/10/01 02:54:37;;;;;;;15.60;11.10;;;;;;;10.56;86.98;98037.00;105683;1265;98586;-79
2023/10/01 03:17:38;;;;;;;16.60;9.90;;;;;;;10.70;85.91;98028.34;105969;1262;95854;-89
2023/10/01 03:21:07;;;;;;;13.90;8.80;;;;;;;10.62;86.00;98031.14;105982;1259;99345;-80
2023/10/01 03:24:14;;;;;;;14.80;10.00;;;;;;;10.54;86.10;98030.71;105390;1263;100383;-88
2023/10/01 03:27:19;;;;;;;12.90;9.80;;;;;;;10.48;86.09;98025.23;104840;1280;99901;-88
2023/10/01 03:30:32;;;;;;;18.10;10.60;;;;;;;10.41;86.15;98018.98;104399;1273;95884;-90
2023/10/01 03:33:39;;;;;;;13.80;9.60;;;;;;;10.36;86.20;98020.41;104269;1276;95941;-90
2023/10/01 05:09:01;;;;;;;10.90;6.80;;;;;;;10.03;86.77;98041.02;105231;1277;109184;-81
2023/10/01 05:12:09;;;;;;;9.70;7.30;;;;;;;10.02;86.60;98036.95;106045;1252;95998;-82
2023/10/01 05:15:24;;;;;;;12.70;7.40;;;;;;;10.00;86.41;98045.46;105456;1263;96043;-88
2023/10/01 05:18:33;;;;;;;10.10;7.80;;;;;;;9.97;86.44;98047.28;104836;1272;100801;-88
2023/10/01 05:21:27;;;;;;;8.90;7.60;;;;;;;9.92;86.33;98059.88;103441;1288;100539;-89
2023/10/01 05:50:57;;;;;;;13.00;9.60;;;;;;;10.41;85.92;98053.42;105361;1268;94403;-81
2023/10/01 05:54:04;;;;;;;12.20;10.10;;;;;;;10.35;86.36;98065.16;106879;1248;95917;-89
2023/10/01 05:56:55;;;;;;;17.70;11.00;;;;;;;10.33;86.60;98075.17;106458;1264;98582;-79
2023/10/01 06:00:00;;;;;;;14.60;10.90;;;;;;;10.30;86.53;98074.85;106505;1254;100331;-79
2023/10/01 06:02:47;;;;;;;15.10;10.20;;;;;;;10.26;86.62;98072.42;105740;1261;99083;-91
2023/10/01 06:05:58;;;;;;;15.30;11.40;;;;;;;10.25;86.65;98066.18;105255;1267;97166;-87
2023/10/01 06:09:17;;;;;;;15.80;10.90;;;;;;;10.18;86.60;98057.04;105328;1263;96038;-88
2023/10/01 06:12:04;;;;;;;15.90;12.30;;;;;;;10.16;86.87;98053.39;104793;1269;99414;-89
2023/10/01 06:15:12;;;;;;;20.20;14.30;;;;;;;10.16;86.93;98048.11;104760;1269;101402;-79
2023/10/01 06:18:07;;;;;;;16.80;11.20;;;;;;;10.18;87.15;98055.44;104428;1275;99038;-81
2023/10/01 06:21:16;;;;;;;17.00;10.80;;;;;;;10.21;87.05;98058.00;104362;1275;96041;-80
2023/10/01 06:24:26;;;;;;;14.70;10.30;;;;;;;10.22;87.13;98057.48;104257;1276;96147;-81
2023/10/01 06:27:32;;;;;;;15.40;10.80;;;;;;;10.23;87.23;98061.48;104024;1279;99705;-81
2023/10/01 07:37:07;;;;;;;11.10;9.40;;;;;;;11.13;86.87;98102.40;105429;1266;95753;-79
2023/10/01 07:40:17;;;;;;;13.00;8.60;;;;;;;11.15;87.18;98097.14;105427;1272;99849;-80
2023/10/01 07:43:22;;;;;;;11.70;7.80;;;;;;;11.19;87.06;98097.55;104171;1278;100079;-80
2023/10/01 07:46:29;;;;;;;13.40;8.80;;;;;;;11.10;86.54;98092.07;105344;1269;99109;-89
2023/10/01 07:49:47;;;;;;;10.70;8.40;;;;;;;11.12;86.92;98090.75;105230;1264;96047;-82
2023/10/01 07:53:03;;;;;;;9.40;7.90;;;;;;;11.22;87.24;98095.77;104875;1270;96071;-83
2023/10/01 07:56:02;;;;;;;11.40;8.30;;;;;;;11.30;87.23;98104.21;104003;1279;99880;-83
2023/10/01 08:41:32;;;;;;;10.60;6.20;;;;;;;12.48;86.30;98059.90;101999;1289;641151;-86
2023/10/01 08:44:45;;;;;;;27.20;14.10;;;;;;;12.77;86.05;98060.19;99459;1280;5346696;-84
2023/10/01 08:47:52;;;;;;;24.50;12.80;;;;;;;12.78;85.95;98055.80;102872;1286;96064;-90
2023/10/01 08:51:08;;;;;;;20.70;9.90;;;;;;;12.80;86.30;98047.92;102191;1289;99614;-82
2023/10/01 08:53:53;;;;;;;11.50;6.80;;;;;;;12.84;86.15;98047.63;101464;1302;100423;-85
2023/10/01 08:57:15;;;;;;;13.00;6.70;;;;;;;12.91;86.05;98043.66;101326;1310;99250;-83
2023/10/01 09:24:11;;;;;;;12.20;5.20;;;;;;;14.34;83.65;98048.65;101520;1294;642312;-86
2023/10/01 09:27:28;;;;;;;10.10;5.70;;;;;;;14.76;81.37;98047.70;99386;1284;5330766;-81
2023/10/01 09:57:48;;;;;;;11.50;3.70;;;;;;;15.78;79.66;98033.15;105467;1261;642244;-82
2023/10/01 10:00:55;;;;;;;10.20;3.70;;;;;;;16.31;77.27;98030.61;101969;1258;5391361;-81
2023/10/01 10:04:07;;;;;;;8.80;3.70;;;;;;;16.21;76.47;98027.96;104734;1273;98102;-81
2023/10/01 10:18:32;;;;;;;14.40;4.20;;;;;;;16.30;74.27;98025.48;105026;1263;642292;-83
2023/10/01 10:21:36;;;;;;;11.10;4.00;;;;;;;16.57;73.71;98018.60;102001;1258;5393204;-83
2023/10/01 10:24:49;;;;;;;12.00;4.40;;;;;;;16.78;73.78;98010.52;105539;1264;96240;-91
2023/10/01 10:28:06;;;;;;;9.10;4.10;;;;;;;16.92;73.50;98010.51;104706;1273;98028;-87
2023/10/01 10:31:11;;;;;;;9.70;3.30;;;;;;;16.98;73.27;98016.67;104265;1286;101162;-83
2023/10/01 11:16:00;;;;;;;10.70;3.30;;;;;;;17.33;69.08;97985.23;105540;1276;95920;-83
2023/10/01 11:19:13;;;;;;;11.20;3.50;;;;;;;17.31;69.40;97983.23;106904;1253;98827;-81
2023/10/01 11:22:03;;;;;;;;;;;;;;;17.23;69.23;97986.07;106450;1254;97230;-86
2023/10/01 11:24:59;;;;;;;8.10;2.80;;;;;;;17.13;68.57;97991.84;105872;1260;97063;-89
2023/10/01 11:28:05;;;;;;;5.50;2.50;;;;;;;16.99;68.61;97988.38;105767;1259;98398;-90
2023/10/01 11:31:17;;;;;;;11.80;2.50;;;;;;;16.87;68.49;97984.22;105214;1274;100000;-85
2023/10/01 11:34:30;;;;;;;7.50;2.50;;;;;;;16.83;67.75;97981.52;104759;1281;99627;-84
2023/10/01 11:58:34;;;;;;;10.00;2.50;;;;;;;17.48;66.08;97975.06;105032;1264;642381;-81
2023/10/01 12:01:39;;;;;;;8.00;2.30;;;;;;;17.80;64.45;97965.42;102352;1256;5402830;-82
2023/10/01 12:04:49;;;;;;;9.60;3.00;;;;;;;17.74;64.49;97957.95;106458;1255;108714;-84
2023/10/01 12:07:56;;;;;;;10.90;3.00;;;;;;;17.61;64.82;97961.61;106020;1258;99872;-82
2023/10/01 12:11:26;;;;;;;6.40;2.80;;;;;;;17.59;64.62;97959.34;105431;1263;100155;-86
2023/10/01 12:52:08;;;;;;;8.20;2.90;;;;;;;17.37;61.63;97934.54;105410;1266;98534;-84
2023/10/01 12:55:05;;;;;;;12.60;2.80;;;;;;;17.28;62.37;97934.95;105391;1264;97163;-84
2023/10/01 12:58:04;;;;;;;5.60;2.40;;;;;;;17.21;62.81;97934.52;105390;1263;97163;-80
2023/10/01 13:01:31;;;;;;;7.50;2.70;;;;;;;17.13;63.16;97932.13;104913;1269;98244;-81
2023/10/01 13:40:12;;;;;;;8.60;3.20;;;;;;;16.98;62.94;97924.09;105456;1265;94244;-82
2023/10/01 14:29:33;;;;;;;9.10;2.90;;;;;;;17.28;62.83;97897.67;105564;1266;95830;-80
2023/10/01 14:32:40;;;;;;;8.70;3.30;;;;;;;17.22;62.45;97898.54;105516;1264;98884;-80
2023/10/01 14:35:48;;;;;;;7.30;3.10;;;;;;;17.13;62.65;97898.01;104686;1267;96010;-80
2023/10/01 15:36:22;;;;;;;7.90;3.20;;;;;;;16.27;68.81;97908.48;105123;1264;95886;-81
2023/10/01 15:39:38;;;;;;;12.40;4.40;;;;;;;16.20;69.32;97914.66;105207;1265;97111;-80
2023/10/01 15:42:26;;;;;;;9.30;3.70;;;;;;;16.15;69.87;97911.95;104065;1281;101052;-81
2023/10/01 16:23:36;;;;;;;8.90;2.70;;;;;;;15.23;71.93;97919.02;105335;1263;95946;-86
2023/10/01 16:26:45;;;;;;;12.60;6.20;;;;;;;15.03;72.17;97922.70;105777;1261;99249;-86
2023/10/01 16:29:52;;;;;;;15.90;7.00;;;;;;;14.86;72.11;97920.65;105093;1267;96157;-84
2023/10/01 16:33:05;;;;;;;17.60;8.30;;;;;;;14.67;72.12;97914.11;104106;1272;95998;-80
2023/10/01 17:08:58;;;;;;;15.20;7.00;;;;;;;13.71;73.04;97940.02;104997;1268;95806;-80
2023/10/01 17:12:05;;;;;;;11.70;6.60;;;;;;;13.51;73.23;97941.89;104875;1264;95981;-81
2023/10/01 17:15:12;;;;;;;9.70;5.50;;;;;;;13.33;73.29;97945.27;104011;1280;98454;-80
2023/10/01 17:28:07;;;;;;;13.70;5.70;;;;;;;12.78;74.01;97964.86;100784;1305;639614;-81
2023/10/01 17:31:17;;;;;;;12.60;7.60;;;;;;;12.67;74.27;97964.96;102713;1287;96685;-85
2023/10/01 18:39:42;;;;;;;23.60;12.80;;;;;;;11.20;76.68;97986.34;105515;1264;98397;-82
2023/10/01 18:42:39;;;;;;;20.40;12.40;;;;;;;11.17;76.88;97984.25;106992;1248;95996;-82
2023/10/01 18:45:30;;;;;;;20.10;12.00;;;;;;;11.12;76.76;97984.80;107009;1241;96873;-77
2023/10/01 18:48:17;;;;;;;20.60;11.70;;;;;;;11.02;76.70;97983.05;107046;1248;99795;-80
2023/10/01 18:51:24;;;;;;;22.30;11.40;;;;;;;10.91;76.72;97984.65;106864;1258;101462;-78
2023/10/01 18:54:31;;;;;;;24.80;11.10;;;;;;;10.81;77.03;97980.64;106192;1257;100005;-79
2023/10/01 18:57:38;;;;;;;20.80;10.10;;;;;;;10.76;77.39;97984.02;105732;1260;96095;-78
2023/10/01 19:00:45;;;;;;;17.10;9.70;;;;;;;10.75;77.60;97980.48;104828;1269;96416;-78
2023/10/01 19:03:46;;;;;;;18.50;9.30;;;;;;;10.75;77.72;97986.25;104396;1270;101103;-83
2023/10/01 19:29:55;;;;;;;12.90;7.60;;;;;;;11.04;77.43;98003.10;101704;1288;643062;-77
2023/10/01 19:33:04;;;;;;;12.00;8.20;;;;;;;11.05;77.50;98006.46;102349;1287;314710;-83
2023/10/01 19:36:15;;;;;;;14.00;7.60;;;;;;;10.93;77.45;98005.68;101942;1294;95924;-84
2023/10/01 19:39:23;;;;;;;18.30;8.70;;;;;;;10.83;77.48;98010.04;101896;1293;98444;-82
2023/10/01 19:42:33;;;;;;;15.60;8.20;;;;;;;10.73;77.52;98014.59;101935;1295;101323;-79
2023/10/01 19:59:10;;;;;;;14.50;7.10;;;;;;;10.32;77.43;98015.30;101487;1296;636889;-78
2023/10/01 20:31:41;;;;;;;14.30;7.20;;;;;;;10.23;78.18;98015.11;105871;1262;95873;-82
2023/10/01 20:34:48;;;;;;;12.00;6.60;;;;;;;10.12;78.27;98006.94;105764;1260;98083;-82
2023/10/01 20:37:56;;;;;;;13.70;6.70;;;;;;;10.01;78.44;98010.10;104841;1268;101207;-83
2023/10/01 20:41:14;;;;;;;16.50;7.70;;;;;;;9.95;78.65;98007.47;104319;1276;100100;-81
2023/10/01 20:44:21;;;;;;;17.90;9.20;;;;;;;9.87;78.73;98011.03;104433;1271;96870;-80
2023/10/01 21:58:18;;;;;;;7.20;4.30;;;;;;;8.72;79.44;98008.88;105598;1262;99502;-88
2023/10/01 22:04:43;;;;;;;10.00;5.30;;;;;;;8.65;79.72;98010.64;106318;1265;99848;-78
2023/10/01 22:07:51;;;;;;;9.90;5.70;;;;;;;8.62;79.87;98008.31;105394;1262;95953;-78
2023/10/01 22:10:59;;;;;;;8.30;5.50;;;;;;;8.58;80.00;98003.61;104616;1270;96240;-77
2023/10/01 22:40:56;;;;;;;11.80;5.50;;;;;;;8.73;79.80;98002.30;104695;1265;642524;-79
2023/10/01 22:44:09;;;;;;;11.00;5.10;;;;;;;8.68;80.02;98009.30;102004;1261;5393390;-79
2023/10/01 22:47:19;;;;;;;9.30;5.50;;;;;;;8.55;80.40;98009.70;105433;1264;98463;-78
2023/10/01 22:50:27;;;;;;;10.70;5.20;;;;;;;8.49;80.44;98013.70;104293;1275;101903;-78
2023/10/01 22:53:34;;;;;;;11.60;5.40;;;;;;;8.42;80.59;98006.13;104266;1276;100088;-78
2023/10/01 22:56:33;;;;;;;12.90;6.40;;;;;;;8.35;80.49;97999.27;103323;1284;96876;-91
2023/10/01 23:23:03;;;;;;;12.60;5.70;;;;;;;8.52;80.42;98025.84;105128;1261;643698;-81
2023/10/01 23:26:03;;;;;;;9.20;5.30;;;;;;;8.58;80.31;98040.01;102877;1248;5411235;-80
2023/10/01 23:28:36;;;;;;;11.30;5.30;;;;;;;8.50;80.25;98040.45;106990;1249;95824;-79
2023/10/01 23:31:48;;;;;;;7.40;4.20;;;;;;;8.41;80.21;98037.82;106870;1252;97976;-79
2023/10/01 23:34:59;;;;;;;10.10;4.70;;;;;;;8.30;80.28;98041.56;104923;1270;100314;-80
2023/10/01 23:38:25;;;;;;;7.10;4.40;;;;;;;8.22;80.37;98037.36;104159;1282;98641;-78
